sensor_id;sensor_type;location;lat;lon;timestamp;P1;P2;P0
53658;PMS5003;41524;35.624;139.698;2024-01-11T00:00:16;9.00;9.00;
53658;PMS5003;41524;35.624;139.698;2024-01-11T00:05:09;8.00;8.00;
53658;PMS5003;41524;35.624;139.698;2024-01-11T00:10:09;10.00;10.00;
53658;PMS5003;41524;35.624;139.698;2024-01-11T00:15:09;19.00;18.00;
53658;PMS5003;41524;35.624;139.698;2024-01-11T00:20:10;13.00;13.00;
53658;PMS5003;41524;35.624;139.698;2024-01-11T00:25:09;12.00;11.00;
53658;PMS5003;41524;35.624;139.698;2024-01-11T00:30:09;15.00;10.00;
53658;PMS5003;41524;35.624;139.698;2024-01-11T00:35:09;11.00;10.00;
53658;PMS5003;41524;35.624;139.698;2024-01-11T00:40:09;13.00;10.00;
53658;PMS5003;41524;35.624;139.698;2024-01-11T00:45:09;11.00;11.00;
53658;PMS5003;41524;35.624;139.698;2024-01-11T00:50:09;11.00;8.00;
53658;PMS5003;41524;35.624;139.698;2024-01-11T00:55:09;10.00;10.00;
53658;PMS5003;41524;35.624;139.698;2024-01-11T01:00:10;15.00;15.00;
53658;PMS5003;41524;35.624;139.698;2024-01-11T01:05:15;16.00;16.00;
53658;PMS5003;41524;35.624;139.698;2024-01-11T01:10:10;8.00;8.00;
53658;PMS5003;41524;35.624;139.698;2024-01-11T01:15:09;11.00;10.00;
53658;PMS5003;41524;35.624;139.698;2024-01-11T01:20:09;9.00;8.00;
53658;PMS5003;41524;35.624;139.698;2024-01-11T01:25:08;10.00;10.00;
53658;PMS5003;41524;35.624;139.698;2024-01-11T01:30:09;11.00;11.00;
53658;PMS5003;41524;35.624;139.698;2024-01-11T01:35:08;11.00;10.00;
53658;PMS5003;41524;35.624;139.698;2024-01-11T01:40:09;8.00;8.00;
53658;PMS5003;41524;35.624;139.698;2024-01-11T01:45:14;9.00;8.00;
53658;PMS5003;41524;35.624;139.698;2024-01-11T01:50:09;6.00;6.00;
53658;PMS5003;41524;35.624;139.698;2024-01-11T01:55:09;9.00;9.00;
53658;PMS5003;41524;35.624;139.698;2024-01-11T02:00:09;8.00;8.00;
53658;PMS5003;41524;35.624;139.698;2024-01-11T02:05:09;8.00;7.00;
53658;PMS5003;41524;35.624;139.698;2024-01-11T02:10:11;10.00;8.00;
53658;PMS5003;41524;35.624;139.698;2024-01-11T02:15:09;11.00;10.00;
53658;PMS5003;41524;35.624;139.698;2024-01-11T02:20:10;9.00;7.00;
53658;PMS5003;41524;35.624;139.698;2024-01-11T02:25:09;9.00;7.00;
53658;PMS5003;41524;35.624;139.698;2024-01-11T02:30:10;9.00;9.00;
53658;PMS5003;41524;35.624;139.698;2024-01-11T02:35:09;6.00;6.00;
53658;PMS5003;41524;35.624;139.698;2024-01-11T02:40:09;8.00;7.00;
53658;PMS5003;41524;35.624;139.698;2024-01-11T02:45:09;8.00;6.00;
53658;PMS5003;41524;35.624;139.698;2024-01-11T02:50:09;7.00;6.00;
53658;PMS5003;41524;35.624;139.698;2024-01-11T02:55:09;10.00;9.00;
53658;PMS5003;41524;35.624;139.698;2024-01-11T03:00:10;11.00;8.00;
53658;PMS5003;41524;35.624;139.698;2024-01-11T03:05:08;9.00;9.00;
53658;PMS5003;41524;35.624;139.698;2024-01-11T03:10:09;11.00;11.00;
53658;PMS5003;41524;35.624;139.698;2024-01-11T03:15:09;14.00;14.00;
53658;PMS5003;41524;35.624;139.698;2024-01-11T03:20:10;13.00;12.00;
53658;PMS5003;41524;35.624;139.698;2024-01-11T03:25:09;21.00;20.00;
53658;PMS5003;41524;35.624;139.698;2024-01-11T03:30:09;18.00;16.00;
53658;PMS5003;41524;35.624;139.698;2024-01-11T03:35:08;12.00;11.00;
53658;PMS5003;41524;35.624;139.698;2024-01-11T03:40:08;14.00;14.00;
53658;PMS5003;41524;35.624;139.698;2024-01-11T03:45:09;19.00;17.00;
53658;PMS5003;41524;35.624;139.698;2024-01-11T03:50:09;17.00;14.00;
53658;PMS5003;41524;35.624;139.698;2024-01-11T03:55:09;16.00;15.00;
53658;PMS5003;41524;35.624;139.698;2024-01-11T04:00:09;16.00;16.00;
53658;PMS5003;41524;35.624;139.698;2024-01-11T04:05:08;23.00;21.00;
53658;PMS5003;41524;35.624;139.698;2024-01-11T04:10:08;16.00;16.00;
53658;PMS5003;41524;35.624;139.698;2024-01-11T04:15:11;17.00;14.00;
53658;PMS5003;41524;35.624;139.698;2024-01-11T04:20:09;12.00;12.00;
53658;PMS5003;41524;35.624;139.698;2024-01-11T04:25:09;15.00;15.00;
53658;PMS5003;41524;35.624;139.698;2024-01-11T04:30:09;15.00;14.00;
53658;PMS5003;41524;35.624;139.698;2024-01-11T04:35:09;10.00;10.00;
53658;PMS5003;41524;35.624;139.698;2024-01-11T04:40:09;18.00;15.00;
53658;PMS5003;41524;35.624;139.698;2024-01-11T04:45:09;12.00;10.00;
53658;PMS5003;41524;35.624;139.698;2024-01-11T04:50:08;11.00;10.00;
53658;PMS5003;41524;35.624;139.698;2024-01-11T04:55:09;12.00;12.00;
53658;PMS5003;41524;35.624;139.698;2024-01-11T05:00:09;14.00;13.00;
53658;PMS5003;41524;35.624;139.698;2024-01-11T05:05:09;16.00;15.00;
53658;PMS5003;41524;35.624;139.698;2024-01-11T05:10:09;17.00;16.00;
53658;PMS5003;41524;35.624;139.698;2024-01-11T05:15:09;19.00;16.00;
53658;PMS5003;41524;35.624;139.698;2024-01-11T05:20:09;11.00;11.00;
53658;PMS5003;41524;35.624;139.698;2024-01-11T05:25:08;13.00;11.00;
53658;PMS5003;41524;35.624;139.698;2024-01-11T05:30:09;12.00;10.00;
53658;PMS5003;41524;35.624;139.698;2024-01-11T05:35:09;10.00;10.00;
53658;PMS5003;41524;35.624;139.698;2024-01-11T05:40:09;10.00;9.00;
53658;PMS5003;41524;35.624;139.698;2024-01-11T05:45:09;12.00;11.00;
53658;PMS5003;41524;35.624;139.698;2024-01-11T05:50:10;13.00;12.00;
53658;PMS5003;41524;35.624;139.698;2024-01-11T05:55:11;11.00;11.00;
53658;PMS5003;41524;35.624;139.698;2024-01-11T06:00:09;9.00;9.00;
53658;PMS5003;41524;35.624;139.698;2024-01-11T06:05:10;10.00;10.00;
53658;PMS5003;41524;35.624;139.698;2024-01-11T06:10:09;15.00;14.00;
53658;PMS5003;41524;35.624;139.698;2024-01-11T06:15:09;10.00;9.00;
53658;PMS5003;41524;35.624;139.698;2024-01-11T06:20:10;10.00;9.00;
53658;PMS5003;41524;35.624;139.698;2024-01-11T06:25:08;14.00;10.00;
53658;PMS5003;41524;35.624;139.698;2024-01-11T06:30:09;11.00;10.00;
53658;PMS5003;41524;35.624;139.698;2024-01-11T06:35:08;10.00;10.00;
53658;PMS5003;41524;35.624;139.698;2024-01-11T06:40:08;7.00;7.00;
53658;PMS5003;41524;35.624;139.698;2024-01-11T06:45:09;11.00;11.00;
53658;PMS5003;41524;35.624;139.698;2024-01-11T06:50:11;10.00;9.00;
53658;PMS5003;41524;35.624;139.698;2024-01-11T06:55:09;9.00;9.00;
53658;PMS5003;41524;35.624;139.698;2024-01-11T07:00:09;14.00;11.00;
53658;PMS5003;41524;35.624;139.698;2024-01-11T07:05:09;8.00;8.00;
53658;PMS5003;41524;35.624;139.698;2024-01-11T07:10:10;13.00;13.00;
53658;PMS5003;41524;35.624;139.698;2024-01-11T07:15:09;10.00;10.00;
53658;PMS5003;41524;35.624;139.698;2024-01-11T07:20:09;14.00;14.00;
53658;PMS5003;41524;35.624;139.698;2024-01-11T07:25:09;9.00;9.00;
53658;PMS5003;41524;35.624;139.698;2024-01-11T07:30:10;10.00;8.00;
53658;PMS5003;41524;35.624;139.698;2024-01-11T07:35:09;9.00;9.00;
53658;PMS5003;41524;35.624;139.698;2024-01-11T07:40:09;9.00;8.00;
53658;PMS5003;41524;35.624;139.698;2024-01-11T07:45:09;11.00;10.00;
53658;PMS5003;41524;35.624;139.698;2024-01-11T07:50:09;11.00;8.00;
53658;PMS5003;41524;35.624;139.698;2024-01-11T07:55:10;15.00;15.00;
53658;PMS5003;41524;35.624;139.698;2024-01-11T08:00:15;12.00;11.00;
53658;PMS5003;41524;35.624;139.698;2024-01-11T08:05:10;9.00;9.00;
53658;PMS5003;41524;35.624;139.698;2024-01-11T08:10:09;14.00;10.00;
53658;PMS5003;41524;35.624;139.698;2024-01-11T08:15:08;15.00;12.00;
53658;PMS5003;41524;35.624;139.698;2024-01-11T08:20:09;14.00;12.00;
53658;PMS5003;41524;35.624;139.698;2024-01-11T08:25:14;15.00;10.00;
53658;PMS5003;41524;35.624;139.698;2024-01-11T08:30:09;13.00;12.00;
53658;PMS5003;41524;35.624;139.698;2024-01-11T08:35:09;11.00;11.00;
53658;PMS5003;41524;35.624;139.698;2024-01-11T08:40:10;12.00;11.00;
53658;PMS5003;41524;35.624;139.698;2024-01-11T08:45:09;13.00;12.00;
53658;PMS5003;41524;35.624;139.698;2024-01-11T08:50:12;14.00;13.00;
53658;PMS5003;41524;35.624;139.698;2024-01-11T08:55:10;15.00;13.00;
53658;PMS5003;41524;35.624;139.698;2024-01-11T09:00:10;11.00;11.00;
53658;PMS5003;41524;35.624;139.698;2024-01-11T09:05:08;12.00;12.00;
53658;PMS5003;41524;35.624;139.698;2024-01-11T09:10:09;12.00;12.00;
53658;PMS5003;41524;35.624;139.698;2024-01-11T09:15:09;19.00;17.00;
53658;PMS5003;41524;35.624;139.698;2024-01-11T09:20:09;17.00;15.00;
53658;PMS5003;41524;35.624;139.698;2024-01-11T09:25:09;24.00;22.00;
53658;PMS5003;41524;35.624;139.698;2024-01-11T09:30:17;21.00;17.00;
53658;PMS5003;41524;35.624;139.698;2024-01-11T09:35:10;26.00;25.00;
53658;PMS5003;41524;35.624;139.698;2024-01-11T09:40:09;21.00;20.00;
53658;PMS5003;41524;35.624;139.698;2024-01-11T09:45:10;24.00;19.00;
53658;PMS5003;41524;35.624;139.698;2024-01-11T09:50:10;17.00;17.00;
53658;PMS5003;41524;35.624;139.698;2024-01-11T09:55:15;20.00;18.00;
53658;PMS5003;41524;35.624;139.698;2024-01-11T10:00:09;24.00;22.00;
53658;PMS5003;41524;35.624;139.698;2024-01-11T10:05:09;19.00;17.00;
53658;PMS5003;41524;35.624;139.698;2024-01-11T10:10:10;21.00;19.00;
53658;PMS5003;41524;35.624;139.698;2024-01-11T10:15:09;25.00;21.00;
53658;PMS5003;41524;35.624;139.698;2024-01-11T10:20:10;22.00;19.00;
53658;PMS5003;41524;35.624;139.698;2024-01-11T10:25:10;21.00;19.00;
53658;PMS5003;41524;35.624;139.698;2024-01-11T10:30:09;29.00;28.00;
53658;PMS5003;41524;35.624;139.698;2024-01-11T10:35:08;32.00;28.00;
53658;PMS5003;41524;35.624;139.698;2024-01-11T10:40:09;31.00;27.00;
53658;PMS5003;41524;35.624;139.698;2024-01-11T10:45:10;23.00;22.00;
53658;PMS5003;41524;35.624;139.698;2024-01-11T10:50:10;22.00;21.00;
53658;PMS5003;41524;35.624;139.698;2024-01-11T10:55:08;21.00;19.00;
53658;PMS5003;41524;35.624;139.698;2024-01-11T11:00:09;27.00;25.00;
53658;PMS5003;41524;35.624;139.698;2024-01-11T11:05:08;32.00;30.00;
53658;PMS5003;41524;35.624;139.698;2024-01-11T11:10:10;27.00;24.00;
53658;PMS5003;41524;35.624;139.698;2024-01-11T11:15:09;25.00;25.00;
53658;PMS5003;41524;35.624;139.698;2024-01-11T11:20:09;27.00;24.00;
53658;PMS5003;41524;35.624;139.698;2024-01-11T11:25:12;30.00;28.00;
53658;PMS5003;41524;35.624;139.698;2024-01-11T11:30:09;34.00;33.00;
53658;PMS5003;41524;35.624;139.698;2024-01-11T11:35:09;29.00;29.00;
53658;PMS5003;41524;35.624;139.698;2024-01-11T11:40:09;33.00;26.00;
53658;PMS5003;41524;35.624;139.698;2024-01-11T11:45:08;31.00;30.00;
53658;PMS5003;41524;35.624;139.698;2024-01-11T11:50:09;32.00;28.00;
53658;PMS5003;41524;35.624;139.698;2024-01-11T11:55:09;33.00;29.00;
53658;PMS5003;41524;35.624;139.698;2024-01-11T12:00:10;26.00;23.00;
53658;PMS5003;41524;35.624;139.698;2024-01-11T12:05:09;36.00;32.00;
53658;PMS5003;41524;35.624;139.698;2024-01-11T12:10:08;39.00;33.00;
53658;PMS5003;41524;35.624;139.698;2024-01-11T12:15:09;31.00;31.00;
53658;PMS5003;41524;35.624;139.698;2024-01-11T12:20:10;37.00;27.00;
53658;PMS5003;41524;35.624;139.698;2024-01-11T12:25:09;32.00;29.00;
53658;PMS5003;41524;35.624;139.698;2024-01-11T12:30:10;32.00;28.00;
53658;PMS5003;41524;35.624;139.698;2024-01-11T12:35:08;29.00;28.00;
53658;PMS5003;41524;35.624;139.698;2024-01-11T12:40:12;28.00;25.00;
53658;PMS5003;41524;35.624;139.698;2024-01-11T12:45:09;33.00;28.00;
53658;PMS5003;41524;35.624;139.698;2024-01-11T12:50:09;35.00;30.00;
53658;PMS5003;41524;35.624;139.698;2024-01-11T12:55:17;33.00;30.00;
53658;PMS5003;41524;35.624;139.698;2024-01-11T13:00:10;31.00;30.00;
53658;PMS5003;41524;35.624;139.698;2024-01-11T13:05:08;39.00;34.00;
53658;PMS5003;41524;35.624;139.698;2024-01-11T13:10:09;43.00;38.00;
53658;PMS5003;41524;35.624;139.698;2024-01-11T13:15:13;34.00;31.00;
53658;PMS5003;41524;35.624;139.698;2024-01-11T13:20:09;24.00;23.00;
53658;PMS5003;41524;35.624;139.698;2024-01-11T13:25:08;32.00;29.00;
53658;PMS5003;41524;35.624;139.698;2024-01-11T13:30:14;32.00;27.00;
53658;PMS5003;41524;35.624;139.698;2024-01-11T13:35:09;25.00;22.00;
53658;PMS5003;41524;35.624;139.698;2024-01-11T13:40:09;20.00;17.00;
53658;PMS5003;41524;35.624;139.698;2024-01-11T13:45:09;25.00;25.00;
53658;PMS5003;41524;35.624;139.698;2024-01-11T13:50:10;22.00;19.00;
53658;PMS5003;41524;35.624;139.698;2024-01-11T13:55:08;26.00;19.00;
53658;PMS5003;41524;35.624;139.698;2024-01-11T14:00:14;21.00;18.00;
53658;PMS5003;41524;35.624;139.698;2024-01-11T14:05:10;22.00;19.00;
53658;PMS5003;41524;35.624;139.698;2024-01-11T14:10:09;31.00;27.00;
53658;PMS5003;41524;35.624;139.698;2024-01-11T14:15:09;23.00;20.00;
53658;PMS5003;41524;35.624;139.698;2024-01-11T14:20:09;18.00;18.00;
53658;PMS5003;41524;35.624;139.698;2024-01-11T14:25:09;19.00;17.00;
53658;PMS5003;41524;35.624;139.698;2024-01-11T14:30:09;21.00;20.00;
53658;PMS5003;41524;35.624;139.698;2024-01-11T14:35:10;23.00;20.00;
53658;PMS5003;41524;35.624;139.698;2024-01-11T14:40:10;28.00;25.00;
53658;PMS5003;41524;35.624;139.698;2024-01-11T14:45:10;29.00;25.00;
53658;PMS5003;41524;35.624;139.698;2024-01-11T14:50:11;26.00;24.00;
53658;PMS5003;41524;35.624;139.698;2024-01-11T14:55:09;26.00;25.00;
53658;PMS5003;41524;35.624;139.698;2024-01-11T15:00:14;25.00;23.00;
53658;PMS5003;41524;35.624;139.698;2024-01-11T15:05:09;30.00;24.00;
53658;PMS5003;41524;35.624;139.698;2024-01-11T15:10:09;26.00;24.00;
53658;PMS5003;41524;35.624;139.698;2024-01-11T15:15:19;30.00;24.00;
53658;PMS5003;41524;35.624;139.698;2024-01-11T15:20:09;33.00;28.00;
53658;PMS5003;41524;35.624;139.698;2024-01-11T15:25:09;30.00;28.00;
53658;PMS5003;41524;35.624;139.698;2024-01-11T15:30:10;27.00;26.00;
53658;PMS5003;41524;35.624;139.698;2024-01-11T15:35:10;35.00;32.00;
53658;PMS5003;41524;35.624;139.698;2024-01-11T15:40:09;42.00;36.00;
53658;PMS5003;41524;35.624;139.698;2024-01-11T15:45:09;33.00;30.00;
53658;PMS5003;41524;35.624;139.698;2024-01-11T15:50:10;36.00;33.00;
53658;PMS5003;41524;35.624;139.698;2024-01-11T15:55:09;35.00;32.00;
53658;PMS5003;41524;35.624;139.698;2024-01-11T16:00:10;33.00;30.00;
53658;PMS5003;41524;35.624;139.698;2024-01-11T16:05:09;40.00;36.00;
53658;PMS5003;41524;35.624;139.698;2024-01-11T16:10:09;27.00;26.00;
53658;PMS5003;41524;35.624;139.698;2024-01-11T16:15:09;31.00;29.00;
53658;PMS5003;41524;35.624;139.698;2024-01-11T16:20:09;30.00;28.00;
53658;PMS5003;41524;35.624;139.698;2024-01-11T16:25:08;39.00;30.00;
53658;PMS5003;41524;35.624;139.698;2024-01-11T16:30:09;22.00;21.00;
53658;PMS5003;41524;35.624;139.698;2024-01-11T16:35:08;26.00;22.00;
53658;PMS5003;41524;35.624;139.698;2024-01-11T16:40:09;21.00;21.00;
53658;PMS5003;41524;35.624;139.698;2024-01-11T16:45:09;29.00;24.00;
53658;PMS5003;41524;35.624;139.698;2024-01-11T16:50:08;24.00;19.00;
53658;PMS5003;41524;35.624;139.698;2024-01-11T16:55:09;15.00;14.00;
53658;PMS5003;41524;35.624;139.698;2024-01-11T17:00:09;23.00;23.00;
53658;PMS5003;41524;35.624;139.698;2024-01-11T17:05:09;14.00;14.00;
53658;PMS5003;41524;35.624;139.698;2024-01-11T17:10:09;20.00;17.00;
53658;PMS5003;41524;35.624;139.698;2024-01-11T17:15:09;18.00;15.00;
53658;PMS5003;41524;35.624;139.698;2024-01-11T17:20:10;19.00;16.00;
53658;PMS5003;41524;35.624;139.698;2024-01-11T17:25:09;22.00;22.00;
53658;PMS5003;41524;35.624;139.698;2024-01-11T17:30:09;19.00;17.00;
53658;PMS5003;41524;35.624;139.698;2024-01-11T17:35:09;21.00;19.00;
53658;PMS5003;41524;35.624;139.698;2024-01-11T17:40:12;19.00;18.00;
53658;PMS5003;41524;35.624;139.698;2024-01-11T17:45:09;23.00;20.00;
53658;PMS5003;41524;35.624;139.698;2024-01-11T17:50:09;17.00;16.00;
53658;PMS5003;41524;35.624;139.698;2024-01-11T17:55:17;16.00;16.00;
53658;PMS5003;41524;35.624;139.698;2024-01-11T18:00:09;15.00;14.00;
53658;PMS5003;41524;35.624;139.698;2024-01-11T18:05:09;20.00;20.00;
53658;PMS5003;41524;35.624;139.698;2024-01-11T18:10:08;21.00;20.00;
53658;PMS5003;41524;35.624;139.698;2024-01-11T18:15:09;24.00;20.00;
53658;PMS5003;41524;35.624;139.698;2024-01-11T18:20:09;16.00;16.00;
53658;PMS5003;41524;35.624;139.698;2024-01-11T18:25:11;17.00;16.00;
53658;PMS5003;41524;35.624;139.698;2024-01-11T18:30:09;21.00;19.00;
53658;PMS5003;41524;35.624;139.698;2024-01-11T18:35:09;20.00;17.00;
53658;PMS5003;41524;35.624;139.698;2024-01-11T18:40:09;19.00;17.00;
53658;PMS5003;41524;35.624;139.698;2024-01-11T18:45:08;24.00;20.00;
53658;PMS5003;41524;35.624;139.698;2024-01-11T18:51:03;25.00;21.00;
53658;PMS5003;41524;35.624;139.698;2024-01-11T18:55:15;17.00;17.00;
53658;PMS5003;41524;35.624;139.698;2024-01-11T19:00:09;21.00;17.00;
53658;PMS5003;41524;35.624;139.698;2024-01-11T19:05:09;26.00;22.00;
53658;PMS5003;41524;35.624;139.698;2024-01-11T19:10:10;16.00;16.00;
53658;PMS5003;41524;35.624;139.698;2024-01-11T19:15:09;17.00;16.00;
53658;PMS5003;41524;35.624;139.698;2024-01-11T19:20:09;18.00;17.00;
53658;PMS5003;41524;35.624;139.698;2024-01-11T19:25:09;18.00;17.00;
53658;PMS5003;41524;35.624;139.698;2024-01-11T19:30:09;22.00;22.00;
53658;PMS5003;41524;35.624;139.698;2024-01-11T19:35:09;20.00;18.00;
53658;PMS5003;41524;35.624;139.698;2024-01-11T19:40:09;16.00;16.00;
53658;PMS5003;41524;35.624;139.698;2024-01-11T19:45:10;16.00;15.00;
53658;PMS5003;41524;35.624;139.698;2024-01-11T19:50:09;12.00;12.00;
53658;PMS5003;41524;35.624;139.698;2024-01-11T19:55:09;15.00;13.00;
53658;PMS5003;41524;35.624;139.698;2024-01-11T20:00:09;22.00;22.00;
53658;PMS5003;41524;35.624;139.698;2024-01-11T20:05:09;13.00;13.00;
53658;PMS5003;41524;35.624;139.698;2024-01-11T20:10:09;15.00;15.00;
53658;PMS5003;41524;35.624;139.698;2024-01-11T20:15:10;15.00;13.00;
53658;PMS5003;41524;35.624;139.698;2024-01-11T20:20:09;14.00;13.00;
53658;PMS5003;41524;35.624;139.698;2024-01-11T20:25:09;12.00;11.00;
53658;PMS5003;41524;35.624;139.698;2024-01-11T20:30:09;15.00;13.00;
53658;PMS5003;41524;35.624;139.698;2024-01-11T20:35:09;14.00;14.00;
53658;PMS5003;41524;35.624;139.698;2024-01-11T20:40:09;17.00;15.00;
53658;PMS5003;41524;35.624;139.698;2024-01-11T20:45:09;18.00;15.00;
53658;PMS5003;41524;35.624;139.698;2024-01-11T20:50:09;19.00;19.00;
53658;PMS5003;41524;35.624;139.698;2024-01-11T20:55:09;19.00;19.00;
53658;PMS5003;41524;35.624;139.698;2024-01-11T21:00:10;18.00;18.00;
53658;PMS5003;41524;35.624;139.698;2024-01-11T21:05:09;19.00;19.00;
53658;PMS5003;41524;35.624;139.698;2024-01-11T21:10:09;17.00;16.00;
53658;PMS5003;41524;35.624;139.698;2024-01-11T21:15:09;29.00;25.00;
53658;PMS5003;41524;35.624;139.698;2024-01-11T21:20:09;18.00;18.00;
53658;PMS5003;41524;35.624;139.698;2024-01-11T21:25:10;19.00;18.00;
53658;PMS5003;41524;35.624;139.698;2024-01-11T21:30:09;21.00;15.00;
53658;PMS5003;41524;35.624;139.698;2024-01-11T21:35:08;19.00;16.00;
53658;PMS5003;41524;35.624;139.698;2024-01-11T21:40:11;21.00;18.00;
53658;PMS5003;41524;35.624;139.698;2024-01-11T21:45:09;18.00;14.00;
53658;PMS5003;41524;35.624;139.698;2024-01-11T21:50:09;22.00;18.00;
53658;PMS5003;41524;35.624;139.698;2024-01-11T21:55:08;17.00;16.00;
53658;PMS5003;41524;35.624;139.698;2024-01-11T22:00:09;13.00;12.00;
53658;PMS5003;41524;35.624;139.698;2024-01-11T22:05:08;10.00;10.00;
53658;PMS5003;41524;35.624;139.698;2024-01-11T22:10:09;20.00;16.00;
53658;PMS5003;41524;35.624;139.698;2024-01-11T22:15:09;20.00;16.00;
53658;PMS5003;41524;35.624;139.698;2024-01-11T22:20:10;13.00;13.00;
53658;PMS5003;41524;35.624;139.698;2024-01-11T22:25:09;14.00;14.00;
53658;PMS5003;41524;35.624;139.698;2024-01-11T22:30:09;16.00;13.00;
53658;PMS5003;41524;35.624;139.698;2024-01-11T22:35:09;27.00;25.00;
53658;PMS5003;41524;35.624;139.698;2024-01-11T22:40:09;18.00;15.00;
53658;PMS5003;41524;35.624;139.698;2024-01-11T22:45:08;12.00;9.00;
53658;PMS5003;41524;35.624;139.698;2024-01-11T22:50:08;15.00;14.00;
53658;PMS5003;41524;35.624;139.698;2024-01-11T22:55:08;15.00;15.00;
53658;PMS5003;41524;35.624;139.698;2024-01-11T23:00:09;14.00;14.00;
53658;PMS5003;41524;35.624;139.698;2024-01-11T23:05:08;11.00;11.00;
53658;PMS5003;41524;35.624;139.698;2024-01-11T23:10:08;10.00;10.00;
53658;PMS5003;41524;35.624;139.698;2024-01-11T23:15:10;14.00;12.00;
53658;PMS5003;41524;35.624;139.698;2024-01-11T23:20:09;13.00;13.00;
53658;PMS5003;41524;35.624;139.698;2024-01-11T23:25:09;10.00;10.00;
53658;PMS5003;41524;35.624;139.698;2024-01-11T23:30:10;13.00;12.00;
53658;PMS5003;41524;35.624;139.698;2024-01-11T23:35:09;13.00;13.00;
53658;PMS5003;41524;35.624;139.698;2024-01-11T23:40:09;9.00;9.00;
53658;PMS5003;41524;35.624;139.698;2024-01-11T23:45:10;13.00;13.00;
53658;PMS5003;41524;35.624;139.698;2024-01-11T23:50:08;14.00;11.00;
53658;PMS5003;41524;35.624;139.698;2024-01-11T23:55:09;13.00;13.00;
